Bartlett, Tennessee
Current Conditions -  °F | °C
As of 1:50 PM on Monday 22 Dec 2014 (Local Time) from KNQA Reporting Station
Overcast Overcast  
Wind Chill: 57°   Ceiling: 1400
Heat Index: 57°   Visibility: 10mi
Dew Point: 54°   Wind: 14mph
Humidity: 88%   Direction: 150°SSE
Pressure: 29.64"   Gusts: NA
Location:  35.2°N, 89.85°W
Report Text: KNQA 221950Z 15012KT 10SM OVC014 14/12 A2964
Loading
Personal Weather Stations






























Interactive Weather Map New forecast layout! Learn more

10-Day Weather Forecast

Advertisements
Track Severe Weather on mobile